createdAt,value
2022-12-05T00:00:20.138Z,6.27
2022-12-05T00:02:52.066Z,6.19
2022-12-05T00:05:23.997Z,6.30
2022-12-05T00:07:55.976Z,6.29
2022-12-05T00:10:27.897Z,6.31
2022-12-05T00:12:59.824Z,6.31
2022-12-05T00:15:31.997Z,6.28
2022-12-05T00:18:04.684Z,6.31
2022-12-05T00:20:46.194Z,6.28
2022-12-05T00:23:18.085Z,6.29
2022-12-05T00:25:49.948Z,6.28
2022-12-05T00:28:21.877Z,6.26
2022-12-05T00:30:53.814Z,6.31
2022-12-05T00:33:25.749Z,6.28
2022-12-05T00:36:04.551Z,6.31
2022-12-05T00:38:37.509Z,6.22
2022-12-05T00:41:19.670Z,6.31
2022-12-05T00:43:52.961Z,6.31
2022-12-05T00:46:28.124Z,6.25
2022-12-05T00:49:02.345Z,6.37
2022-12-05T00:51:41.253Z,6.39
2022-12-05T00:54:16.337Z,6.42
2022-12-05T00:56:48.638Z,6.37
2022-12-05T00:59:20.772Z,6.43
2022-12-05T01:01:52.849Z,6.43
2022-12-05T01:04:25.742Z,6.25
2022-12-05T01:06:59.009Z,6.41
2022-12-05T01:09:31.099Z,6.41
2022-12-05T01:12:03.184Z,6.41
2022-12-05T01:14:35.303Z,6.41
2022-12-05T01:17:07.319Z,6.45
2022-12-05T01:19:39.323Z,6.48
2022-12-05T01:22:11.273Z,6.49
2022-12-05T01:24:43.467Z,6.53
2022-12-05T01:27:15.533Z,6.55
2022-12-05T01:29:47.652Z,6.44
2022-12-05T01:32:19.760Z,6.52
2022-12-05T01:34:51.881Z,6.52
2022-12-05T01:37:23.991Z,6.52
2022-12-05T01:39:56.346Z,6.54
2022-12-05T01:42:28.559Z,6.51
2022-12-05T01:45:08.455Z,6.59
2022-12-05T01:47:40.711Z,6.56
2022-12-05T01:50:13.980Z,6.49
2022-12-05T01:52:46.134Z,6.60
2022-12-05T01:55:20.068Z,6.62
2022-12-05T01:57:52.381Z,6.60
2022-12-05T02:00:24.587Z,6.47
2022-12-05T02:03:01.969Z,6.56
2022-12-05T02:05:36.547Z,6.54
2022-12-05T02:08:10.975Z,6.53
2022-12-05T02:11:01.203Z,6.48
2022-12-05T02:14:17.125Z,6.60
2022-12-05T02:17:27.597Z,6.59
2022-12-05T02:20:37.783Z,6.60
2022-12-05T02:24:02.694Z,6.56
2022-12-05T02:27:22.681Z,6.55
2022-12-05T02:30:21.059Z,6.57
2022-12-05T02:33:35.302Z,6.51
2022-12-05T02:36:16.823Z,6.53
2022-12-05T02:39:12.211Z,6.49
2022-12-05T02:42:01.489Z,6.52
2022-12-05T02:45:01.216Z,6.55
2022-12-05T02:47:42.152Z,6.61
2022-12-05T02:50:20.855Z,6.63
2022-12-05T02:52:58.616Z,6.62
2022-12-05T02:55:33.281Z,6.60
2022-12-05T02:58:14.695Z,6.57
2022-12-05T03:00:53.257Z,6.61
2022-12-05T03:03:27.229Z,6.66
2022-12-05T03:06:08.202Z,6.66
2022-12-05T03:08:50.309Z,6.61
2022-12-05T03:11:22.648Z,6.63
2022-12-05T03:14:00.446Z,6.69
2022-12-05T03:16:43.687Z,6.67
2022-12-05T03:19:27.475Z,6.62
2022-12-05T03:22:10.862Z,6.66
2022-12-05T03:24:43.690Z,6.64
2022-12-05T03:27:25.485Z,6.70
2022-12-05T03:30:12.479Z,6.66
2022-12-05T03:33:05.769Z,6.61
2022-12-05T03:35:47.783Z,6.63
2022-12-05T03:38:45.643Z,6.68
2022-12-05T03:41:41.458Z,6.60
2022-12-05T03:44:44.666Z,6.62
2022-12-05T03:47:27.390Z,6.62
2022-12-05T03:50:11.313Z,6.65
2022-12-05T03:53:18.768Z,6.56
2022-12-05T03:56:00.231Z,6.52
2022-12-05T03:58:41.880Z,6.71
2022-12-05T04:01:18.028Z,6.74
2022-12-05T04:03:59.945Z,6.77
2022-12-05T04:06:39.346Z,6.81
2022-12-05T04:09:19.351Z,6.80
2022-12-05T04:12:06.574Z,6.76
2022-12-05T04:14:45.527Z,6.77
2022-12-05T04:17:53.696Z,6.71
2022-12-05T04:21:00.405Z,6.67
2022-12-05T04:23:33.014Z,6.66
2022-12-05T04:26:29.032Z,6.72
2022-12-05T04:29:17.116Z,6.65
2022-12-05T04:31:58.237Z,6.59
2022-12-05T04:34:33.253Z,6.71
2022-12-05T04:37:14.963Z,6.74
2022-12-05T04:39:56.952Z,6.73
2022-12-05T04:42:32.629Z,6.78
2022-12-05T04:45:09.848Z,6.77
2022-12-05T04:47:50.025Z,6.66
2022-12-05T04:50:27.008Z,6.72
2022-12-05T04:53:01.928Z,6.75
2022-12-05T04:55:39.544Z,6.77
2022-12-05T04:58:15.321Z,6.74
2022-12-05T05:01:32.088Z,6.78
2022-12-05T05:04:15.149Z,6.77
2022-12-05T05:06:47.590Z,6.80
2022-12-05T05:09:19.518Z,6.82
2022-12-05T05:11:51.518Z,6.82
2022-12-05T05:14:23.420Z,6.85
2022-12-05T05:16:55.363Z,6.87
2022-12-05T05:19:27.555Z,6.89
2022-12-05T05:22:00.421Z,6.88
2022-12-05T05:24:32.365Z,6.91
2022-12-05T05:27:04.382Z,6.92
2022-12-05T05:29:36.325Z,6.96
2022-12-05T05:32:08.223Z,6.97
2022-12-05T05:34:40.303Z,6.84
2022-12-05T05:37:12.258Z,6.95
2022-12-05T05:39:44.233Z,6.89
2022-12-05T05:42:16.165Z,6.96
2022-12-05T05:44:47.999Z,6.98
2022-12-05T05:47:19.937Z,6.99
2022-12-05T05:49:51.839Z,6.97
2022-12-05T05:52:23.815Z,6.95
2022-12-05T05:54:55.819Z,6.85
2022-12-05T05:57:27.861Z,7.22
2022-12-05T06:00:00.194Z,7.05
2022-12-05T06:02:36.973Z,6.95
2022-12-05T06:05:09.441Z,6.93
2022-12-05T06:07:41.401Z,6.94
2022-12-05T06:10:13.439Z,6.92
2022-12-05T06:12:45.502Z,7.01
2022-12-05T06:15:17.649Z,6.98
2022-12-05T06:17:49.621Z,7.02
2022-12-05T06:20:21.633Z,7.04
2022-12-05T06:22:53.625Z,7.04
2022-12-05T06:25:25.554Z,7.05
2022-12-05T06:27:57.489Z,7.08
2022-12-05T06:30:29.465Z,7.06
2022-12-05T06:33:01.511Z,7.06
2022-12-05T06:35:33.485Z,7.03
2022-12-05T06:38:06.940Z,7.04
2022-12-05T06:40:45.550Z,7.02
2022-12-05T06:43:17.534Z,7.03
2022-12-05T06:45:49.872Z,7.04
2022-12-05T06:48:21.947Z,7.02
2022-12-05T06:50:53.981Z,6.95
2022-12-05T06:53:26.314Z,7.06
2022-12-05T06:56:01.683Z,7.09
2022-12-05T06:58:34.124Z,7.10
2022-12-05T07:01:28.735Z,6.91
2022-12-05T07:04:00.993Z,6.93
2022-12-05T07:06:35.214Z,7.09
2022-12-05T07:09:07.987Z,7.08
2022-12-05T07:11:39.936Z,7.12
2022-12-05T07:14:24.879Z,6.85
2022-12-05T07:17:04.162Z,7.08
2022-12-05T07:19:36.451Z,7.10
2022-12-05T07:22:12.148Z,7.17
2022-12-05T07:24:48.749Z,7.13
2022-12-05T07:27:26.961Z,6.97
2022-12-05T07:29:59.683Z,6.98
2022-12-05T07:32:34.396Z,7.17
2022-12-05T07:35:06.670Z,7.10
2022-12-05T07:37:38.628Z,7.00
2022-12-05T07:40:11.766Z,7.08
2022-12-05T07:42:43.680Z,7.06
2022-12-05T07:45:15.716Z,7.07
2022-12-05T07:47:48.118Z,7.14
2022-12-05T07:50:20.105Z,7.14
2022-12-05T07:52:52.945Z,7.14
2022-12-05T07:55:24.931Z,7.16
2022-12-05T07:57:57.088Z,7.16
2022-12-05T08:00:29.067Z,7.19
2022-12-05T08:03:03.524Z,7.58
2022-12-05T08:05:35.656Z,7.35
2022-12-05T08:08:07.755Z,7.17
2022-12-05T08:10:39.792Z,7.23
2022-12-05T08:13:11.750Z,7.26
2022-12-05T08:15:43.705Z,7.25
2022-12-05T08:18:15.655Z,7.30
2022-12-05T08:20:47.623Z,7.26
2022-12-05T08:23:19.630Z,7.25
2022-12-05T08:25:51.537Z,7.32
2022-12-05T08:28:23.466Z,7.32
2022-12-05T08:30:55.341Z,7.35
2022-12-05T08:33:27.315Z,7.29
2022-12-05T08:36:03.323Z,7.33
2022-12-05T08:38:36.331Z,7.30
2022-12-05T08:41:18.203Z,7.34
2022-12-05T08:43:50.102Z,7.36
2022-12-05T08:46:22.324Z,7.31
2022-12-05T08:48:54.316Z,7.39
2022-12-05T08:51:26.701Z,7.41
2022-12-05T08:53:58.603Z,7.40
2022-12-05T08:56:32.911Z,7.36
2022-12-05T08:59:06.394Z,7.39
2022-12-05T09:01:39.573Z,7.30
2022-12-05T09:04:12.619Z,7.39
2022-12-05T09:06:44.605Z,7.37
2022-12-05T09:09:16.810Z,7.40
2022-12-05T09:11:51.013Z,7.44
2022-12-05T09:14:24.301Z,7.44
2022-12-05T09:16:56.224Z,7.46
2022-12-05T09:19:28.777Z,7.47
2022-12-05T09:22:00.726Z,7.47
2022-12-05T09:24:32.598Z,7.49
2022-12-05T09:27:04.487Z,7.53
2022-12-05T09:29:37.455Z,7.54
2022-12-05T09:32:10.941Z,7.46
2022-12-05T09:34:42.941Z,7.58
2022-12-05T09:37:37.478Z,7.61
2022-12-05T09:40:14.499Z,7.46
2022-12-05T09:43:40.992Z,7.57
2022-12-05T09:46:35.322Z,7.64
2022-12-05T09:49:13.175Z,7.64
2022-12-05T09:51:54.955Z,7.67
2022-12-05T09:54:28.613Z,7.70
2022-12-05T09:57:01.490Z,7.73
2022-12-05T09:59:35.447Z,7.73
2022-12-05T10:02:50.216Z,7.63
2022-12-05T10:06:10.119Z,7.60
2022-12-05T10:09:20.033Z,7.56
2022-12-05T10:12:02.925Z,7.60
2022-12-05T10:14:44.461Z,7.61
2022-12-05T10:17:43.791Z,7.63
2022-12-05T10:20:27.144Z,7.64
2022-12-05T10:23:55.359Z,7.54
2022-12-05T10:26:20.024Z,7.67
2022-12-05T10:29:33.639Z,7.52
2022-12-05T10:32:22.239Z,7.63
2022-12-05T10:35:07.248Z,7.61
2022-12-05T10:37:39.247Z,7.67
2022-12-05T10:40:13.606Z,7.65
2022-12-05T10:42:47.944Z,7.64
2022-12-05T10:45:23.955Z,7.64
2022-12-05T10:47:57.908Z,7.62
2022-12-05T10:50:36.723Z,7.61
2022-12-05T10:53:15.373Z,7.63
2022-12-05T10:56:28.279Z,7.60
2022-12-05T10:58:59.582Z,7.60
2022-12-05T11:01:33.664Z,7.58
2022-12-05T11:04:40.276Z,7.55
2022-12-05T11:07:36.557Z,7.55
2022-12-05T11:10:36.611Z,7.57
2022-12-05T11:13:24.869Z,7.53
2022-12-05T11:15:56.941Z,7.63
2022-12-05T11:18:33.765Z,7.63
2022-12-05T11:21:13.500Z,7.68
2022-12-05T11:23:46.119Z,7.51
2022-12-05T11:26:38.138Z,7.63
2022-12-05T11:29:38.518Z,7.65
2022-12-05T11:32:21.732Z,7.70
2022-12-05T11:35:11.486Z,7.68
2022-12-05T11:37:59.718Z,7.55
2022-12-05T11:41:08.398Z,7.67
2022-12-05T11:43:55.107Z,7.69
2022-12-05T11:47:04.639Z,7.69
2022-12-05T11:50:01.817Z,7.72
2022-12-05T11:52:56.369Z,7.69
2022-12-05T11:55:43.832Z,7.73
2022-12-05T11:58:37.015Z,7.74
2022-12-05T12:01:28.436Z,7.75
2022-12-05T12:04:37.286Z,7.69
2022-12-05T12:07:46.875Z,7.73
2022-12-05T12:10:40.463Z,7.76
2022-12-05T12:13:53.799Z,7.74
2022-12-05T12:17:10.261Z,7.68
2022-12-05T12:20:16.842Z,7.79
2022-12-05T12:23:18.668Z,7.84
2022-12-05T12:25:59.455Z,7.87
2022-12-05T12:28:39.467Z,7.90
2022-12-05T12:31:20.973Z,7.92
2022-12-05T12:34:09.585Z,7.92
2022-12-05T12:37:03.002Z,7.86
2022-12-05T12:39:37.505Z,7.96
2022-12-05T12:42:44.220Z,7.87
2022-12-05T12:45:46.079Z,7.92
2022-12-05T12:49:01.401Z,7.87
2022-12-05T12:51:36.383Z,7.90
2022-12-05T12:55:02.395Z,7.90
2022-12-05T12:58:02.718Z,7.86
2022-12-05T13:01:11.062Z,7.91
2022-12-05T13:03:55.414Z,7.86
2022-12-05T13:06:44.796Z,7.95
2022-12-05T13:09:35.348Z,7.92
2022-12-05T13:12:20.197Z,7.97
2022-12-05T13:15:03.139Z,7.98
2022-12-05T13:17:36.055Z,7.98
2022-12-05T13:20:19.634Z,7.94
2022-12-05T13:22:54.522Z,8.01
2022-12-05T13:25:36.677Z,8.02
2022-12-05T13:28:47.744Z,8.01
2022-12-05T13:31:44.851Z,8.01
2022-12-05T13:34:48.182Z,7.87
2022-12-05T13:37:49.203Z,7.84
2022-12-05T13:40:44.508Z,7.94
2022-12-05T13:43:24.324Z,7.93
2022-12-05T13:46:13.959Z,7.94
2022-12-05T13:48:49.823Z,8.00
2022-12-05T13:51:37.564Z,7.94
2022-12-05T13:54:26.163Z,7.81
2022-12-05T13:57:02.657Z,7.89
2022-12-05T14:00:23.074Z,7.93
2022-12-05T14:03:15.410Z,7.94
2022-12-05T14:05:55.112Z,7.95
2022-12-05T14:08:35.914Z,7.94
2022-12-05T14:11:11.526Z,7.94
2022-12-05T14:13:45.191Z,7.96
2022-12-05T14:16:26.114Z,7.93
2022-12-05T14:19:34.501Z,7.93
2022-12-05T14:23:04.964Z,7.83
2022-12-05T14:26:23.569Z,7.93
2022-12-05T14:29:38.514Z,7.87
2022-12-05T14:32:25.290Z,7.93
2022-12-05T14:35:25.439Z,7.90
2022-12-05T14:38:07.020Z,7.91
2022-12-05T14:40:46.325Z,8.00
2022-12-05T14:43:34.142Z,7.99
2022-12-05T14:46:19.625Z,8.10
2022-12-05T14:48:52.183Z,8.14
2022-12-05T14:51:32.514Z,8.16
2022-12-05T14:54:19.400Z,8.15
2022-12-05T14:57:03.697Z,8.15
2022-12-05T15:00:01.224Z,8.13
2022-12-05T15:02:42.547Z,8.17
2022-12-05T15:05:31.541Z,8.15
2022-12-05T15:08:05.909Z,8.17
2022-12-05T15:10:40.009Z,8.22
2022-12-05T15:13:25.195Z,8.19
2022-12-05T15:16:14.983Z,8.20
2022-12-05T15:18:51.891Z,8.19
2022-12-05T15:21:51.206Z,8.20
2022-12-05T15:24:23.520Z,8.28
2022-12-05T15:26:58.648Z,8.30
2022-12-05T15:29:33.083Z,8.28
2022-12-05T15:32:18.909Z,8.28
2022-12-05T15:34:57.942Z,8.26
2022-12-05T15:37:38.988Z,8.23
2022-12-05T15:40:20.769Z,8.14
2022-12-05T15:42:56.614Z,8.25
2022-12-05T15:45:30.539Z,8.48
2022-12-05T15:48:08.473Z,8.31
2022-12-05T15:50:53.173Z,8.25
2022-12-05T15:53:43.430Z,8.23
2022-12-05T15:56:29.998Z,8.26
2022-12-05T15:59:49.238Z,8.19
2022-12-05T16:02:45.947Z,8.27
2022-12-05T16:05:29.362Z,8.29
2022-12-05T16:08:06.088Z,8.31
2022-12-05T16:10:38.251Z,8.28
2022-12-05T16:13:16.628Z,8.21
2022-12-05T16:15:53.241Z,8.27
2022-12-05T16:18:31.937Z,8.29
2022-12-05T16:21:23.962Z,8.29
2022-12-05T16:24:20.850Z,8.20
2022-12-05T16:27:17.599Z,8.19
2022-12-05T16:30:13.291Z,8.20
2022-12-05T16:32:47.975Z,8.21
2022-12-05T16:35:33.820Z,8.21
2022-12-05T16:38:17.852Z,8.20
2022-12-05T16:40:49.729Z,8.20
2022-12-05T16:43:44.250Z,8.13
2022-12-05T16:46:16.583Z,8.17
2022-12-05T16:49:31.615Z,8.12
2022-12-05T16:52:22.128Z,8.09
2022-12-05T16:54:54.157Z,8.12
2022-12-05T16:57:26.209Z,8.13
2022-12-05T16:59:58.331Z,8.13
2022-12-05T17:02:30.407Z,8.12
2022-12-05T17:05:13.710Z,8.06
2022-12-05T17:07:45.789Z,8.06
2022-12-05T17:10:18.888Z,8.08
2022-12-05T17:12:50.840Z,8.01
2022-12-05T17:15:22.756Z,8.17
2022-12-05T17:17:55.668Z,8.05
2022-12-05T17:20:28.005Z,8.63
2022-12-05T17:22:59.938Z,8.34
2022-12-05T17:25:37.078Z,8.35
2022-12-05T17:28:09.008Z,8.33
2022-12-05T17:30:41.487Z,8.36
2022-12-05T17:33:17.380Z,8.39
2022-12-05T17:35:49.382Z,8.43
2022-12-05T17:38:22.071Z,8.39
2022-12-05T17:40:54.071Z,8.35
2022-12-05T17:43:25.991Z,8.27
2022-12-05T17:46:00.826Z,8.29
2022-12-05T17:48:32.854Z,8.28
2022-12-05T17:51:10.206Z,8.33
2022-12-05T17:53:44.716Z,8.35
2022-12-05T17:56:16.726Z,8.38
2022-12-05T17:58:49.597Z,8.31
2022-12-05T18:01:21.804Z,8.42
2022-12-05T18:03:53.790Z,8.46
2022-12-05T18:06:26.689Z,8.47
2022-12-05T18:08:58.596Z,8.43
2022-12-05T18:11:30.683Z,8.40
2022-12-05T18:14:02.699Z,8.42
2022-12-05T18:16:34.728Z,8.45
2022-12-05T18:19:08.255Z,8.48
2022-12-05T18:21:40.346Z,8.51
2022-12-05T18:24:12.389Z,8.52
2022-12-05T18:26:44.369Z,8.54
2022-12-05T18:29:16.319Z,8.55
2022-12-05T18:31:48.486Z,8.55
2022-12-05T18:34:20.468Z,8.54
2022-12-05T18:36:52.512Z,8.53
2022-12-05T18:39:24.586Z,8.61
2022-12-05T18:41:56.489Z,8.59
2022-12-05T18:44:29.580Z,8.56
2022-12-05T18:47:01.677Z,8.62
2022-12-05T18:49:33.696Z,8.63
2022-12-05T18:52:05.629Z,8.63
2022-12-05T18:54:37.682Z,8.59
2022-12-05T18:57:10.046Z,8.57
2022-12-05T18:59:41.937Z,8.68
2022-12-05T19:02:14.524Z,8.57
2022-12-05T19:04:46.616Z,8.69
2022-12-05T19:07:18.578Z,8.70
2022-12-05T19:09:50.556Z,8.72
2022-12-05T19:12:22.501Z,8.77
2022-12-05T19:14:54.470Z,8.77
2022-12-05T19:17:26.462Z,8.78
2022-12-05T19:20:01.354Z,8.78
2022-12-05T19:22:33.378Z,8.80
2022-12-05T19:25:05.879Z,8.80
2022-12-05T19:27:37.781Z,8.57
2022-12-05T19:30:10.748Z,8.78
2022-12-05T19:32:42.915Z,8.74
2022-12-05T19:35:15.004Z,8.68
2022-12-05T19:37:46.981Z,8.83
2022-12-05T19:40:18.937Z,8.84
2022-12-05T19:42:50.819Z,8.80
2022-12-05T19:45:23.129Z,8.83
2022-12-05T19:47:55.075Z,8.79
2022-12-05T19:50:27.256Z,8.73
2022-12-05T19:52:59.219Z,8.62
2022-12-05T19:55:31.100Z,8.82
2022-12-05T19:58:03.096Z,8.83
2022-12-05T20:00:35.077Z,8.81
2022-12-05T20:03:12.037Z,8.84
2022-12-05T20:05:44.402Z,8.79
2022-12-05T20:08:16.381Z,8.83
2022-12-05T20:10:50.573Z,8.87
2022-12-05T20:13:46.426Z,8.89
2022-12-05T20:16:18.969Z,8.90
2022-12-05T20:18:52.062Z,8.89
2022-12-05T20:21:25.743Z,8.91
2022-12-05T20:24:00.963Z,8.90
2022-12-05T20:26:37.669Z,8.94
2022-12-05T20:29:10.507Z,8.94
2022-12-05T20:31:43.648Z,8.80
2022-12-05T20:34:15.636Z,8.96
2022-12-05T20:36:47.572Z,8.99
2022-12-05T20:39:19.707Z,8.93
2022-12-05T20:41:52.513Z,8.93
2022-12-05T20:44:24.994Z,8.90
2022-12-05T20:46:57.245Z,8.91
2022-12-05T20:49:29.240Z,8.96
2022-12-05T20:52:01.176Z,8.96
2022-12-05T20:54:33.072Z,8.86
2022-12-05T20:57:05.106Z,8.92
2022-12-05T20:59:37.007Z,8.93
2022-12-05T21:02:09.218Z,8.94
2022-12-05T21:04:41.227Z,8.90
2022-12-05T21:07:13.282Z,8.89
2022-12-05T21:09:45.292Z,8.93
2022-12-05T21:12:17.221Z,8.96
2022-12-05T21:14:49.236Z,8.97
2022-12-05T21:17:22.909Z,8.98
2022-12-05T21:19:54.922Z,8.99
2022-12-05T21:22:26.837Z,8.80
2022-12-05T21:24:58.753Z,8.97
2022-12-05T21:27:31.196Z,8.98
2022-12-05T21:30:03.399Z,8.87
2022-12-05T21:32:35.348Z,8.99
2022-12-05T21:35:07.761Z,9.00
2022-12-05T21:37:40.254Z,8.97
2022-12-05T21:40:12.343Z,8.99
2022-12-05T21:42:44.317Z,8.96
2022-12-05T21:45:16.396Z,8.86
2022-12-05T21:47:48.357Z,9.04
2022-12-05T21:50:20.312Z,8.98
2022-12-05T21:52:52.251Z,9.02
2022-12-05T21:55:24.893Z,9.00
2022-12-05T21:57:56.811Z,9.00
2022-12-05T22:00:28.889Z,8.97
2022-12-05T22:03:00.897Z,8.97
2022-12-05T22:05:36.048Z,8.91
2022-12-05T22:08:08.324Z,8.96
2022-12-05T22:10:40.319Z,8.97
2022-12-05T22:13:12.240Z,8.92
2022-12-05T22:15:44.168Z,8.89
2022-12-05T22:18:16.169Z,9.03
2022-12-05T22:20:56.804Z,9.04
2022-12-05T22:23:29.351Z,9.04
2022-12-05T22:26:08.442Z,9.05
2022-12-05T22:28:40.575Z,9.02
2022-12-05T22:31:16.124Z,8.91
2022-12-05T22:33:49.027Z,9.01
2022-12-05T22:36:21.053Z,9.02
2022-12-05T22:38:53.076Z,9.01
2022-12-05T22:41:26.831Z,9.01
2022-12-05T22:44:00.243Z,9.02
2022-12-05T22:46:32.188Z,8.79
2022-12-05T22:49:05.197Z,9.00
2022-12-05T22:51:37.233Z,9.02
2022-12-05T22:54:09.201Z,9.02
2022-12-05T22:56:41.170Z,9.06
2022-12-05T22:59:14.848Z,9.06
2022-12-05T23:01:47.376Z,9.06
2022-12-05T23:04:20.259Z,9.09
2022-12-05T23:06:52.455Z,9.01
2022-12-05T23:09:24.537Z,9.07
2022-12-05T23:11:56.639Z,9.04
2022-12-05T23:14:28.787Z,9.08
2022-12-05T23:17:00.827Z,9.07
2022-12-05T23:19:32.895Z,9.06
2022-12-05T23:22:05.014Z,9.09
2022-12-05T23:24:37.119Z,9.10
2022-12-05T23:27:09.209Z,9.05
2022-12-05T23:29:42.586Z,9.14
2022-12-05T23:32:14.672Z,9.11
2022-12-05T23:34:46.792Z,9.06
2022-12-05T23:37:18.852Z,9.12
2022-12-05T23:39:51.012Z,9.12
2022-12-05T23:42:23.072Z,9.11
2022-12-05T23:44:55.273Z,9.12
2022-12-05T23:47:27.510Z,9.13
2022-12-05T23:49:59.849Z,8.98
2022-12-05T23:52:31.996Z,9.03
2022-12-05T23:55:04.695Z,8.99
2022-12-05T23:57:36.769Z,9.17
